Startpagina
METAR-TAF:

METAR-TAF

Vliegvelden :

Vitoria, Spanje

breedte: 42-53N, lengte: 002-43W, hoogte: 513 m

Actueel weer

Dit bericht is 34 minuten geleden gemaakt, om 23:30 UTC
Wind 3 kt uit het oostnoordoosten
Temperatuur 9°C
Vochtigheid 66%
Druk 1017 hPa
Zicht 10 km of meer
Weinig wolken op 2500 ft
Gebroken wolken op 6000 ft

METAR: LEVT 192330Z 06003KT 9999 FEW025 BKN060 09/03 Q1017

Tijdstip: 02:04 (00:04 UTC)

Verwachting

Dit bericht is 1 uur en het 4 minuten geleden gemaakt, om 23:00 UTC
Verwachting geldig van 20 om 00 UTC tot 20 om 24 UTC
Wind 5 kt uit variabele richting
Zicht 10 km of meer
geen wolken onder 1500 m en geen cumulonimbus
Kans 40% :
Tijdelijke
van 20 om 00 UTC tot 20 om 02 UTC
regen
Kans 40% :
Tijdelijke
van 20 om 00 UTC tot 20 om 08 UTC
Zicht: 3000 m
Gebroken wolken op 1000 ft
nevel
Tijdelijke
van 20 om 06 UTC tot 20 om 12 UTC
regen

TAF: LEVT 192300Z 2000/2024 VRB05KT CAVOK TX15/2014Z TN01/2006Z PROB40 TEMPO 2000/2002 RA PROB40 TEMPO 2000/2008 3000 BR BKN010 TEMPO 2006/2012 RA

Waarnemingen en weersverwachtingen van meer dan 4000 vliegvelden (METAR en TAF).

De beschikbare stations zijn de gele en rode punten op de kaart.

Ga met uw muis naar het station om de naam te zien.

Klik dan om waarnemingen en weersverwachtingen te zien.

kaart wijzigen: klik op de groene knoppen met een zwart kruis om in te zoomen, op de groene knop met een streepje om uit te zoomen of op de groene pijlen voor aangrenzende kaarten.


METAR-TAF: